Airfield :
LOGIN :

Register | Disclaimer

   EN    FR    IT 

 










Legend :    VFR   Marginal VFR   IFR   Intensive IFR   Very Intensive IFR
Visi :
Ceiling :
>= 8 km
>= 3000ft
5 to 8 km
1000 to 3000 ft
1500m to 5 km
500 to 1000 ft
800 to 1500m
200 to 500 ft
< 800m
< 200 ft
Symbols :   Thunderstorms  Fog  Heavy snow  Heavy precipitations  Wind > 20 kt
SIGMETs :     Misc.  Thunderstorms  Icing  Turbulence  Mountain Waves  Volcanic Ashes







- Airport Elevation : 1090 ft
- IATA code : CFE
- Download approach charts


LFLC - Clermont-Ferrand Auvergne

CURRENT METAR :
  • 251800Z AUTO 03003KT 360V070 8000 -RA BKN018/// BKN038/// OVC052/// ///CB 09/07 Q1006 TEMPO 4000 RA BKN006 BKN015 BKN020 FEW022TCU

EXPIRED METARs :
  • 251730Z AUTO 01005KT 320V040 7000 -RA FEW006/// OVC036/// ///CB 09/07 Q1006 TEMPO 4000 RA BKN006 BKN015 BKN020 FEW022TCU
  • 251700Z AUTO 36004KT 320V070 7000 -RA FEW009/// BKN029/// OVC034/// ///CB 09/08 Q1006 TEMPO 4000 RA BKN006 BKN015 BKN020 FEW022TCU
  • 251630Z AUTO 02005KT 340V060 5000 -RA BR SCT007/// BKN017/// BKN022/// ///CB 09/07 Q1006 TEMPO 2000 RA BKN006 BKN015 BKN020 FEW022TCU
  • 251600Z AUTO 02008KT 360V080 8000 -RA BKN006/// OVC013/// ///TCU 09/08 Q1006 TEMPO 2000 RA BKN005 BKN013TCU FEW025CB
  • 251530Z AUTO 01008KT 340V050 4800 RA BR BKN005/// OVC011/// ///CB 10/09 Q1006 TEMPO 2000 RA

TAF AMD TAF LFLC
Valid from the 25 at 15:00 until the 26 at 15:00 UTC


251509Z 2515/2615 35005KT 9999 FEW010 BKN025
TEMPO 2515/2518 2000 RA BKN005 BKN013TCU FEW025CB
TEMPO 2518/2524 4000 RA BKN006 BKN015 BKN020 FEW022TCU
PROB40
TEMPO 2600/2606 RA BKN007 FEW020TCU
PROB40
TEMPO 2612/2615 SHRA SCT035TCU BKN040
ATIS : +33 4 73 62 74 38
No reported NOTAMs for that airfield.



MET'MAP, your aeronautical weather chart ! - Copyright ORBIFLY December 2007 - Disclaimer

ORBIFLY MET'MAP TEAM :

Programming & Development : Alexandra Zaïnal
Concept & Development : Baudouin d'Aumeries
Co-Development & Prog : Marc-Olivier Méhu
Technical & hardware support : Manuel Goepfert

Contact : metmap@orbifly.com




SOURCES & CREDITS :

   NOAA